sensor_id;sensor_type;location;lat;lon;timestamp;pressure;altitude;pressure_sealevel;temperature;humidity
31062;BME280;17724;53.546;9.974;2023-12-20T00:03:58;100966.06;;;7.44;100.00
31062;BME280;17724;53.546;9.974;2023-12-20T00:07:58;100957.00;;;7.01;100.00
31062;BME280;17724;53.546;9.974;2023-12-20T00:11:58;100961.19;;;7.04;100.00
31062;BME280;17724;53.546;9.974;2023-12-20T00:15:59;100957.16;;;7.06;100.00
31062;BME280;17724;53.546;9.974;2023-12-20T00:19:59;100952.09;;;6.91;100.00
31062;BME280;17724;53.546;9.974;2023-12-20T00:24:00;100957.16;;;7.18;100.00
31062;BME280;17724;53.546;9.974;2023-12-20T00:28:00;100932.31;;;6.89;100.00
31062;BME280;17724;53.546;9.974;2023-12-20T00:32:01;100952.88;;;7.10;100.00
31062;BME280;17724;53.546;9.974;2023-12-20T00:36:01;100944.16;;;7.02;100.00
31062;BME280;17724;53.546;9.974;2023-12-20T00:40:02;100927.25;;;7.23;100.00
31062;BME280;17724;53.546;9.974;2023-12-20T00:44:04;100936.53;;;7.22;100.00
31062;BME280;17724;53.546;9.974;2023-12-20T00:48:05;100931.94;;;7.04;100.00
31062;BME280;17724;53.546;9.974;2023-12-20T00:52:05;100923.09;;;6.90;100.00
31062;BME280;17724;53.546;9.974;2023-12-20T00:56:06;100918.78;;;7.25;100.00
31062;BME280;17724;53.546;9.974;2023-12-20T01:00:07;100914.13;;;7.13;100.00
31062;BME280;17724;53.546;9.974;2023-12-20T01:04:10;100914.63;;;7.22;100.00
31062;BME280;17724;53.546;9.974;2023-12-20T01:08:10;100900.22;;;7.15;100.00
31062;BME280;17724;53.546;9.974;2023-12-20T01:12:10;100907.06;;;7.06;100.00
31062;BME280;17724;53.546;9.974;2023-12-20T01:16:12;100906.16;;;7.12;100.00
31062;BME280;17724;53.546;9.974;2023-12-20T01:20:13;100894.38;;;6.81;100.00
31062;BME280;17724;53.546;9.974;2023-12-20T01:24:13;100909.09;;;6.99;100.00
31062;BME280;17724;53.546;9.974;2023-12-20T01:28:14;100906.84;;;7.07;100.00
31062;BME280;17724;53.546;9.974;2023-12-20T01:32:14;100894.88;;;6.90;100.00
31062;BME280;17724;53.546;9.974;2023-12-20T01:36:15;100907.41;;;6.98;100.00
31062;BME280;17724;53.546;9.974;2023-12-20T01:40:15;100903.91;;;6.79;100.00
31062;BME280;17724;53.546;9.974;2023-12-20T01:44:16;100897.69;;;6.72;100.00
31062;BME280;17724;53.546;9.974;2023-12-20T01:48:19;100895.13;;;6.88;100.00
31062;BME280;17724;53.546;9.974;2023-12-20T01:52:20;100886.50;;;6.73;100.00
31062;BME280;17724;53.546;9.974;2023-12-20T01:56:21;100887.38;;;6.85;100.00
31062;BME280;17724;53.546;9.974;2023-12-20T02:00:22;100893.88;;;6.73;100.00
31062;BME280;17724;53.546;9.974;2023-12-20T02:04:26;100872.81;;;6.43;100.00
31062;BME280;17724;53.546;9.974;2023-12-20T02:08:27;100872.19;;;6.41;100.00
31062;BME280;17724;53.546;9.974;2023-12-20T02:12:27;100866.34;;;6.56;100.00
31062;BME280;17724;53.546;9.974;2023-12-20T02:16:28;100855.94;;;6.46;100.00
31062;BME280;17724;53.546;9.974;2023-12-20T02:20:28;100847.16;;;6.62;100.00
31062;BME280;17724;53.546;9.974;2023-12-20T02:24:29;100845.44;;;6.61;100.00
31062;BME280;17724;53.546;9.974;2023-12-20T02:28:29;100843.03;;;6.53;100.00
31062;BME280;17724;53.546;9.974;2023-12-20T02:32:31;100850.88;;;6.50;100.00
31062;BME280;17724;53.546;9.974;2023-12-20T02:36:31;100833.69;;;6.61;100.00
31062;BME280;17724;53.546;9.974;2023-12-20T02:40:32;100812.94;;;6.41;100.00
31062;BME280;17724;53.546;9.974;2023-12-20T02:44:33;100840.97;;;6.67;100.00
31062;BME280;17724;53.546;9.974;2023-12-20T02:48:33;100832.09;;;6.72;100.00
31062;BME280;17724;53.546;9.974;2023-12-20T02:52:33;100830.81;;;6.56;100.00
31062;BME280;17724;53.546;9.974;2023-12-20T02:56:34;100820.72;;;6.56;100.00
31062;BME280;17724;53.546;9.974;2023-12-20T03:00:34;100822.66;;;6.37;100.00
31062;BME280;17724;53.546;9.974;2023-12-20T03:04:35;100812.16;;;6.53;100.00
31062;BME280;17724;53.546;9.974;2023-12-20T03:08:35;100821.69;;;6.62;100.00
31062;BME280;17724;53.546;9.974;2023-12-20T03:12:35;100793.94;;;6.35;100.00
31062;BME280;17724;53.546;9.974;2023-12-20T03:16:36;100809.28;;;6.48;100.00
31062;BME280;17724;53.546;9.974;2023-12-20T03:20:37;100792.78;;;6.43;100.00
31062;BME280;17724;53.546;9.974;2023-12-20T03:24:37;100793.88;;;6.23;100.00
31062;BME280;17724;53.546;9.974;2023-12-20T03:28:38;100794.63;;;6.42;100.00
31062;BME280;17724;53.546;9.974;2023-12-20T03:32:38;100788.41;;;6.53;100.00
31062;BME280;17724;53.546;9.974;2023-12-20T03:36:39;100777.88;;;6.69;100.00
31062;BME280;17724;53.546;9.974;2023-12-20T03:40:40;100775.59;;;6.65;100.00
31062;BME280;17724;53.546;9.974;2023-12-20T03:44:40;100799.69;;;6.57;100.00
31062;BME280;17724;53.546;9.974;2023-12-20T03:48:41;100781.56;;;6.62;100.00
31062;BME280;17724;53.546;9.974;2023-12-20T03:52:42;100769.94;;;6.67;100.00
31062;BME280;17724;53.546;9.974;2023-12-20T03:56:42;100756.34;;;6.60;100.00
31062;BME280;17724;53.546;9.974;2023-12-20T04:00:42;100751.63;;;6.68;100.00
31062;BME280;17724;53.546;9.974;2023-12-20T04:04:43;100757.84;;;6.86;100.00
31062;BME280;17724;53.546;9.974;2023-12-20T04:08:43;100761.50;;;6.80;100.00
31062;BME280;17724;53.546;9.974;2023-12-20T04:12:44;100745.81;;;6.76;100.00
31062;BME280;17724;53.546;9.974;2023-12-20T04:16:44;100746.75;;;6.70;100.00
31062;BME280;17724;53.546;9.974;2023-12-20T04:20:45;100751.28;;;6.76;100.00
31062;BME280;17724;53.546;9.974;2023-12-20T04:24:45;100726.78;;;6.69;100.00
31062;BME280;17724;53.546;9.974;2023-12-20T04:28:46;100722.63;;;6.66;100.00
31062;BME280;17724;53.546;9.974;2023-12-20T04:32:46;100722.16;;;6.70;100.00
31062;BME280;17724;53.546;9.974;2023-12-20T04:36:47;100710.75;;;6.73;100.00
31062;BME280;17724;53.546;9.974;2023-12-20T04:40:47;100702.66;;;6.78;100.00
31062;BME280;17724;53.546;9.974;2023-12-20T04:44:48;100691.16;;;6.76;100.00
31062;BME280;17724;53.546;9.974;2023-12-20T04:48:48;100696.38;;;6.77;100.00
31062;BME280;17724;53.546;9.974;2023-12-20T04:52:49;100683.31;;;6.79;100.00
31062;BME280;17724;53.546;9.974;2023-12-20T04:56:49;100687.81;;;6.74;100.00
31062;BME280;17724;53.546;9.974;2023-12-20T05:00:50;100696.38;;;6.77;100.00
31062;BME280;17724;53.546;9.974;2023-12-20T05:04:51;100678.56;;;6.75;100.00
31062;BME280;17724;53.546;9.974;2023-12-20T05:08:51;100675.84;;;6.75;100.00
31062;BME280;17724;53.546;9.974;2023-12-20T05:12:52;100674.97;;;6.74;100.00
31062;BME280;17724;53.546;9.974;2023-12-20T05:16:52;100675.00;;;6.98;100.00
31062;BME280;17724;53.546;9.974;2023-12-20T05:20:53;100672.41;;;7.03;100.00
31062;BME280;17724;53.546;9.974;2023-12-20T05:24:53;100666.22;;;6.84;100.00
31062;BME280;17724;53.546;9.974;2023-12-20T05:28:54;100680.25;;;6.87;100.00
31062;BME280;17724;53.546;9.974;2023-12-20T05:32:54;100666.09;;;6.90;100.00
31062;BME280;17724;53.546;9.974;2023-12-20T05:36:55;100670.50;;;7.03;100.00
31062;BME280;17724;53.546;9.974;2023-12-20T05:40:55;100664.31;;;7.08;100.00
31062;BME280;17724;53.546;9.974;2023-12-20T05:44:55;100661.69;;;6.89;100.00
31062;BME280;17724;53.546;9.974;2023-12-20T05:48:56;100670.03;;;7.06;100.00
31062;BME280;17724;53.546;9.974;2023-12-20T05:52:56;100672.41;;;7.03;100.00
31062;BME280;17724;53.546;9.974;2023-12-20T05:56:57;100657.91;;;6.79;100.00
31062;BME280;17724;53.546;9.974;2023-12-20T06:00:58;100655.28;;;6.96;100.00
31062;BME280;17724;53.546;9.974;2023-12-20T06:04:58;100668.84;;;7.02;100.00
31062;BME280;17724;53.546;9.974;2023-12-20T06:08:59;100649.69;;;7.02;100.00
31062;BME280;17724;53.546;9.974;2023-12-20T06:12:59;100650.63;;;6.96;100.00
31062;BME280;17724;53.546;9.974;2023-12-20T06:17:01;100629.13;;;6.76;100.00
31062;BME280;17724;53.546;9.974;2023-12-20T06:21:01;100623.19;;;7.03;100.00
31062;BME280;17724;53.546;9.974;2023-12-20T06:25:02;100626.75;;;7.03;100.00
31062;BME280;17724;53.546;9.974;2023-12-20T06:29:03;100635.66;;;6.99;100.00
31062;BME280;17724;53.546;9.974;2023-12-20T06:33:03;100634.81;;;7.10;100.00
31062;BME280;17724;53.546;9.974;2023-12-20T06:37:04;100628.50;;;7.21;100.00
31062;BME280;17724;53.546;9.974;2023-12-20T06:41:05;100614.25;;;7.19;100.00
31062;BME280;17724;53.546;9.974;2023-12-20T06:45:06;100614.84;;;6.98;100.00
31062;BME280;17724;53.546;9.974;2023-12-20T06:49:07;100611.69;;;7.29;100.00
31062;BME280;17724;53.546;9.974;2023-12-20T06:53:07;100604.72;;;7.10;100.00
31062;BME280;17724;53.546;9.974;2023-12-20T06:57:08;100610.16;;;7.33;100.00
31062;BME280;17724;53.546;9.974;2023-12-20T07:01:12;100597.34;;;7.22;100.00
31062;BME280;17724;53.546;9.974;2023-12-20T07:05:16;100591.97;;;7.27;100.00
31062;BME280;17724;53.546;9.974;2023-12-20T07:09:17;100581.28;;;7.14;100.00
31062;BME280;17724;53.546;9.974;2023-12-20T07:13:17;100591.28;;;7.20;100.00
31062;BME280;17724;53.546;9.974;2023-12-20T07:17:17;100591.88;;;7.22;100.00
31062;BME280;17724;53.546;9.974;2023-12-20T07:21:18;100587.81;;;7.25;100.00
31062;BME280;17724;53.546;9.974;2023-12-20T07:25:18;100579.22;;;7.33;100.00
31062;BME280;17724;53.546;9.974;2023-12-20T07:29:20;100575.06;;;7.42;100.00
31062;BME280;17724;53.546;9.974;2023-12-20T07:33:21;100577.28;;;7.45;100.00
31062;BME280;17724;53.546;9.974;2023-12-20T07:37:22;100583.75;;;7.39;100.00
31062;BME280;17724;53.546;9.974;2023-12-20T07:41:22;100571.13;;;7.38;100.00
31062;BME280;17724;53.546;9.974;2023-12-20T07:45:24;100566.16;;;7.35;100.00
31062;BME280;17724;53.546;9.974;2023-12-20T07:49:24;100575.22;;;7.24;100.00
31062;BME280;17724;53.546;9.974;2023-12-20T07:53:25;100560.66;;;7.47;100.00
31062;BME280;17724;53.546;9.974;2023-12-20T07:57:28;100561.56;;;7.52;100.00
31062;BME280;17724;53.546;9.974;2023-12-20T08:01:29;100553.69;;;7.56;100.00
31062;BME280;17724;53.546;9.974;2023-12-20T08:05:29;100553.22;;;7.59;100.00
31062;BME280;17724;53.546;9.974;2023-12-20T08:09:30;100553.00;;;7.49;100.00
31062;BME280;17724;53.546;9.974;2023-12-20T08:13:32;100553.84;;;7.49;100.00
31062;BME280;17724;53.546;9.974;2023-12-20T08:17:32;100535.97;;;7.58;100.00
31062;BME280;17724;53.546;9.974;2023-12-20T08:21:33;100516.81;;;7.58;100.00
31062;BME280;17724;53.546;9.974;2023-12-20T08:25:33;100518.50;;;7.76;100.00
31062;BME280;17724;53.546;9.974;2023-12-20T08:29:34;100508.84;;;7.74;100.00
31062;BME280;17724;53.546;9.974;2023-12-20T08:33:34;100513.56;;;7.61;100.00
31062;BME280;17724;53.546;9.974;2023-12-20T08:37:34;100503.06;;;7.70;100.00
31062;BME280;17724;53.546;9.974;2023-12-20T08:41:36;100504.88;;;7.64;100.00
31062;BME280;17724;53.546;9.974;2023-12-20T08:45:37;100502.66;;;7.78;100.00
31062;BME280;17724;53.546;9.974;2023-12-20T08:49:39;100492.34;;;7.69;100.00
31062;BME280;17724;53.546;9.974;2023-12-20T08:53:39;100488.88;;;7.73;100.00
31062;BME280;17724;53.546;9.974;2023-12-20T08:57:40;100494.03;;;7.86;100.00
31062;BME280;17724;53.546;9.974;2023-12-20T09:01:40;100507.88;;;7.63;100.00
31062;BME280;17724;53.546;9.974;2023-12-20T09:05:41;100494.66;;;7.60;100.00
31062;BME280;17724;53.546;9.974;2023-12-20T09:09:41;100472.00;;;7.48;100.00
31062;BME280;17724;53.546;9.974;2023-12-20T09:13:42;100466.97;;;7.56;100.00
31062;BME280;17724;53.546;9.974;2023-12-20T09:17:42;100490.56;;;7.17;100.00
31062;BME280;17724;53.546;9.974;2023-12-20T09:21:44;100490.00;;;7.15;100.00
31062;BME280;17724;53.546;9.974;2023-12-20T09:25:44;100504.94;;;6.84;100.00
31062;BME280;17724;53.546;9.974;2023-12-20T09:29:45;100533.56;;;6.81;100.00
31062;BME280;17724;53.546;9.974;2023-12-20T09:33:46;100512.81;;;6.45;100.00
31062;BME280;17724;53.546;9.974;2023-12-20T09:37:46;100500.22;;;6.68;100.00
31062;BME280;17724;53.546;9.974;2023-12-20T09:42:06;100518.16;;;6.75;100.00
31062;BME280;17724;53.546;9.974;2023-12-20T09:46:09;100535.25;;;6.82;100.00
31062;BME280;17724;53.546;9.974;2023-12-20T09:50:12;100525.25;;;6.88;100.00
31062;BME280;17724;53.546;9.974;2023-12-20T09:54:20;100549.13;;;6.81;100.00
31062;BME280;17724;53.546;9.974;2023-12-20T09:58:21;100534.66;;;6.80;100.00
31062;BME280;17724;53.546;9.974;2023-12-20T10:02:25;100544.03;;;6.73;100.00
31062;BME280;17724;53.546;9.974;2023-12-20T10:06:27;100526.34;;;6.75;100.00
31062;BME280;17724;53.546;9.974;2023-12-20T10:10:27;100519.84;;;7.05;100.00
31062;BME280;17724;53.546;9.974;2023-12-20T10:14:28;100538.06;;;6.99;100.00
31062;BME280;17724;53.546;9.974;2023-12-20T10:18:29;100551.66;;;6.71;100.00
31062;BME280;17724;53.546;9.974;2023-12-20T10:22:30;100549.28;;;6.62;100.00
31062;BME280;17724;53.546;9.974;2023-12-20T10:26:30;100539.75;;;6.65;100.00
31062;BME280;17724;53.546;9.974;2023-12-20T10:30:31;100540.25;;;6.62;100.00
31062;BME280;17724;53.546;9.974;2023-12-20T10:34:32;100540.22;;;6.74;100.00
31062;BME280;17724;53.546;9.974;2023-12-20T10:38:34;100519.00;;;6.64;100.00
31062;BME280;17724;53.546;9.974;2023-12-20T10:42:37;100521.81;;;6.81;100.00
31062;BME280;17724;53.546;9.974;2023-12-20T10:46:40;100514.81;;;6.73;100.00
31062;BME280;17724;53.546;9.974;2023-12-20T10:50:41;100506.75;;;6.78;100.00
31062;BME280;17724;53.546;9.974;2023-12-20T10:54:42;100504.22;;;6.88;100.00
31062;BME280;17724;53.546;9.974;2023-12-20T10:58:42;100505.44;;;6.69;100.00
31062;BME280;17724;53.546;9.974;2023-12-20T11:02:49;100492.84;;;6.68;100.00
31062;BME280;17724;53.546;9.974;2023-12-20T11:06:54;100490.94;;;6.57;100.00
31062;BME280;17724;53.546;9.974;2023-12-20T11:11:07;100481.63;;;6.81;100.00
31062;BME280;17724;53.546;9.974;2023-12-20T11:15:10;100486.91;;;6.71;100.00
31062;BME280;17724;53.546;9.974;2023-12-20T11:19:11;100486.47;;;6.39;100.00
31062;BME280;17724;53.546;9.974;2023-12-20T11:23:14;100488.06;;;6.87;100.00
31062;BME280;17724;53.546;9.974;2023-12-20T11:27:14;100481.66;;;7.10;100.00
31062;BME280;17724;53.546;9.974;2023-12-20T11:31:15;100500.28;;;7.25;100.00
31062;BME280;17724;53.546;9.974;2023-12-20T11:39:20;100527.72;;;7.30;100.00
31062;BME280;17724;53.546;9.974;2023-12-20T11:47:32;100518.50;;;7.93;100.00
31062;BME280;17724;53.546;9.974;2023-12-20T11:51:33;100515.53;;;7.95;100.00
31062;BME280;17724;53.546;9.974;2023-12-20T11:55:33;100528.13;;;7.79;100.00
31062;BME280;17724;53.546;9.974;2023-12-20T11:59:34;100525.13;;;7.80;100.00
31062;BME280;17724;53.546;9.974;2023-12-20T12:03:34;100526.22;;;7.79;100.00
31062;BME280;17724;53.546;9.974;2023-12-20T12:07:35;100513.22;;;7.29;100.00
31062;BME280;17724;53.546;9.974;2023-12-20T12:11:35;100511.47;;;7.52;100.00
31062;BME280;17724;53.546;9.974;2023-12-20T12:15:37;100507.41;;;7.83;100.00
31062;BME280;17724;53.546;9.974;2023-12-20T12:19:38;100503.56;;;7.67;100.00
31062;BME280;17724;53.546;9.974;2023-12-20T12:23:38;100493.78;;;7.71;100.00
31062;BME280;17724;53.546;9.974;2023-12-20T12:27:40;100492.75;;;7.60;100.00
31062;BME280;17724;53.546;9.974;2023-12-20T12:31:41;100506.69;;;7.59;100.00
31062;BME280;17724;53.546;9.974;2023-12-20T12:35:41;100502.97;;;7.65;100.00
31062;BME280;17724;53.546;9.974;2023-12-20T12:39:42;100490.84;;;7.78;100.00
31062;BME280;17724;53.546;9.974;2023-12-20T12:43:43;100518.09;;;7.84;100.00
31062;BME280;17724;53.546;9.974;2023-12-20T12:47:43;100504.06;;;7.98;100.00
31062;BME280;17724;53.546;9.974;2023-12-20T12:51:44;100513.88;;;8.10;100.00
31062;BME280;17724;53.546;9.974;2023-12-20T12:55:45;100511.06;;;8.22;100.00
31062;BME280;17724;53.546;9.974;2023-12-20T12:59:46;100520.84;;;8.01;100.00
31062;BME280;17724;53.546;9.974;2023-12-20T13:03:46;100515.63;;;8.00;100.00
31062;BME280;17724;53.546;9.974;2023-12-20T13:07:47;100514.94;;;7.93;100.00
31062;BME280;17724;53.546;9.974;2023-12-20T13:11:48;100515.75;;;7.93;100.00
31062;BME280;17724;53.546;9.974;2023-12-20T13:15:48;100504.66;;;8.00;100.00
31062;BME280;17724;53.546;9.974;2023-12-20T13:19:53;100507.81;;;7.92;100.00
31062;BME280;17724;53.546;9.974;2023-12-20T13:23:53;100507.47;;;8.05;100.00
31062;BME280;17724;53.546;9.974;2023-12-20T13:27:54;100502.25;;;7.86;100.00
31062;BME280;17724;53.546;9.974;2023-12-20T13:31:55;100522.66;;;8.12;100.00
31062;BME280;17724;53.546;9.974;2023-12-20T13:35:55;100526.41;;;8.23;100.00
31062;BME280;17724;53.546;9.974;2023-12-20T13:39:58;100518.28;;;7.95;100.00
31062;BME280;17724;53.546;9.974;2023-12-20T13:43:59;100513.22;;;8.03;100.00
31062;BME280;17724;53.546;9.974;2023-12-20T13:47:59;100523.75;;;7.95;100.00
31062;BME280;17724;53.546;9.974;2023-12-20T13:52:00;100527.88;;;7.97;100.00
31062;BME280;17724;53.546;9.974;2023-12-20T13:56:00;100528.22;;;8.18;100.00
31062;BME280;17724;53.546;9.974;2023-12-20T14:00:01;100528.22;;;8.01;100.00
31062;BME280;17724;53.546;9.974;2023-12-20T14:04:07;100525.06;;;8.09;100.00
31062;BME280;17724;53.546;9.974;2023-12-20T14:08:08;100538.34;;;8.17;100.00
31062;BME280;17724;53.546;9.974;2023-12-20T14:12:09;100547.41;;;8.18;100.00
31062;BME280;17724;53.546;9.974;2023-12-20T14:16:09;100553.22;;;8.21;100.00
31062;BME280;17724;53.546;9.974;2023-12-20T14:20:11;100540.69;;;8.08;100.00
31062;BME280;17724;53.546;9.974;2023-12-20T14:24:14;100547.50;;;8.06;98.34
31062;BME280;17724;53.546;9.974;2023-12-20T14:28:15;100545.31;;;8.08;98.22
31062;BME280;17724;53.546;9.974;2023-12-20T14:32:15;100560.84;;;8.02;96.21
31062;BME280;17724;53.546;9.974;2023-12-20T14:36:17;100543.47;;;7.80;94.70
31062;BME280;17724;53.546;9.974;2023-12-20T14:40:19;100535.25;;;7.80;94.37
31062;BME280;17724;53.546;9.974;2023-12-20T14:44:19;100557.00;;;7.86;93.64
31062;BME280;17724;53.546;9.974;2023-12-20T14:48:20;100559.00;;;7.91;93.37
31062;BME280;17724;53.546;9.974;2023-12-20T14:52:21;100567.31;;;7.96;93.45
31062;BME280;17724;53.546;9.974;2023-12-20T14:56:24;100560.41;;;7.94;93.79
31062;BME280;17724;53.546;9.974;2023-12-20T15:00:26;100564.22;;;7.93;96.13
31062;BME280;17724;53.546;9.974;2023-12-20T15:04:26;100566.97;;;7.93;96.50
31062;BME280;17724;53.546;9.974;2023-12-20T15:08:29;100571.28;;;7.88;96.30
31062;BME280;17724;53.546;9.974;2023-12-20T15:12:29;100578.53;;;8.11;97.40
31062;BME280;17724;53.546;9.974;2023-12-20T15:16:30;100568.94;;;7.52;96.83
31062;BME280;17724;53.546;9.974;2023-12-20T15:20:30;100567.41;;;7.73;98.68
31062;BME280;17724;53.546;9.974;2023-12-20T15:24:33;100550.28;;;7.49;97.73
31062;BME280;17724;53.546;9.974;2023-12-20T15:28:39;100533.13;;;7.53;98.24
31062;BME280;17724;53.546;9.974;2023-12-20T15:32:39;100546.56;;;7.26;99.82
31062;BME280;17724;53.546;9.974;2023-12-20T15:36:42;100532.69;;;7.04;100.00
31062;BME280;17724;53.546;9.974;2023-12-20T15:40:42;100542.47;;;7.00;100.00
31062;BME280;17724;53.546;9.974;2023-12-20T15:44:43;100542.78;;;7.15;100.00
31062;BME280;17724;53.546;9.974;2023-12-20T15:48:43;100540.28;;;7.14;100.00
31062;BME280;17724;53.546;9.974;2023-12-20T15:52:44;100541.38;;;7.41;100.00
31062;BME280;17724;53.546;9.974;2023-12-20T15:56:44;100538.63;;;7.13;100.00
31062;BME280;17724;53.546;9.974;2023-12-20T16:00:47;100540.88;;;7.45;100.00
31062;BME280;17724;53.546;9.974;2023-12-20T16:04:49;100540.31;;;7.43;100.00
31062;BME280;17724;53.546;9.974;2023-12-20T16:08:49;100539.25;;;7.44;100.00
31062;BME280;17724;53.546;9.974;2023-12-20T16:12:50;100530.88;;;7.10;100.00
31062;BME280;17724;53.546;9.974;2023-12-20T16:16:50;100536.09;;;7.23;100.00
31062;BME280;17724;53.546;9.974;2023-12-20T16:20:51;100533.31;;;7.35;100.00
31062;BME280;17724;53.546;9.974;2023-12-20T16:24:51;100537.25;;;7.39;100.00
31062;BME280;17724;53.546;9.974;2023-12-20T16:28:52;100544.94;;;7.02;100.00
31062;BME280;17724;53.546;9.974;2023-12-20T16:32:52;100532.72;;;7.33;100.00
31062;BME280;17724;53.546;9.974;2023-12-20T16:36:53;100528.72;;;7.24;100.00
31062;BME280;17724;53.546;9.974;2023-12-20T16:40:57;100532.88;;;7.26;100.00
31062;BME280;17724;53.546;9.974;2023-12-20T16:44:59;100539.50;;;7.42;100.00
31062;BME280;17724;53.546;9.974;2023-12-20T16:48:59;100535.22;;;7.63;100.00
31062;BME280;17724;53.546;9.974;2023-12-20T16:53:00;100571.09;;;7.78;100.00
31062;BME280;17724;53.546;9.974;2023-12-20T16:57:01;100579.53;;;7.77;100.00
31062;BME280;17724;53.546;9.974;2023-12-20T17:01:01;100573.97;;;7.43;100.00
31062;BME280;17724;53.546;9.974;2023-12-20T17:05:01;100578.84;;;7.41;100.00
31062;BME280;17724;53.546;9.974;2023-12-20T17:09:02;100566.81;;;7.02;100.00
31062;BME280;17724;53.546;9.974;2023-12-20T17:13:03;100577.16;;;7.11;100.00
31062;BME280;17724;53.546;9.974;2023-12-20T17:17:04;100556.38;;;6.99;100.00
31062;BME280;17724;53.546;9.974;2023-12-20T17:21:05;100550.00;;;7.22;100.00
31062;BME280;17724;53.546;9.974;2023-12-20T17:25:06;100545.75;;;7.14;100.00
31062;BME280;17724;53.546;9.974;2023-12-20T17:29:07;100532.38;;;7.29;100.00
31062;BME280;17724;53.546;9.974;2023-12-20T17:33:07;100541.03;;;7.38;100.00
31062;BME280;17724;53.546;9.974;2023-12-20T17:37:08;100523.94;;;7.31;100.00
31062;BME280;17724;53.546;9.974;2023-12-20T17:41:08;100527.28;;;7.50;100.00
31062;BME280;17724;53.546;9.974;2023-12-20T17:45:09;100514.09;;;7.18;100.00
31062;BME280;17724;53.546;9.974;2023-12-20T17:49:10;100519.38;;;7.08;100.00
31062;BME280;17724;53.546;9.974;2023-12-20T17:53:10;100510.16;;;6.85;100.00
31062;BME280;17724;53.546;9.974;2023-12-20T17:57:10;100497.84;;;6.71;100.00
31062;BME280;17724;53.546;9.974;2023-12-20T18:01:11;100476.16;;;6.81;100.00
31062;BME280;17724;53.546;9.974;2023-12-20T18:05:14;100459.03;;;7.26;100.00
31062;BME280;17724;53.546;9.974;2023-12-20T18:09:15;100456.84;;;7.11;100.00
31062;BME280;17724;53.546;9.974;2023-12-20T18:13:15;100463.66;;;7.26;100.00
31062;BME280;17724;53.546;9.974;2023-12-20T18:17:16;100445.97;;;6.88;100.00
31062;BME280;17724;53.546;9.974;2023-12-20T18:21:17;100459.75;;;7.22;100.00
31062;BME280;17724;53.546;9.974;2023-12-20T18:25:18;100459.34;;;7.30;100.00
31062;BME280;17724;53.546;9.974;2023-12-20T18:29:18;100450.38;;;7.18;100.00
31062;BME280;17724;53.546;9.974;2023-12-20T18:33:19;100433.03;;;7.57;100.00
31062;BME280;17724;53.546;9.974;2023-12-20T18:37:19;100431.34;;;7.23;100.00
31062;BME280;17724;53.546;9.974;2023-12-20T18:41:20;100429.13;;;7.36;100.00
31062;BME280;17724;53.546;9.974;2023-12-20T18:45:20;100417.91;;;7.21;100.00
31062;BME280;17724;53.546;9.974;2023-12-20T18:49:21;100416.28;;;7.54;100.00
31062;BME280;17724;53.546;9.974;2023-12-20T18:53:21;100415.38;;;7.31;100.00
31062;BME280;17724;53.546;9.974;2023-12-20T18:57:22;100398.84;;;6.98;100.00
31062;BME280;17724;53.546;9.974;2023-12-20T19:01:22;100405.19;;;6.98;100.00
31062;BME280;17724;53.546;9.974;2023-12-20T19:05:23;100403.31;;;6.87;100.00
31062;BME280;17724;53.546;9.974;2023-12-20T19:09:27;100387.88;;;6.81;100.00
31062;BME280;17724;53.546;9.974;2023-12-20T19:13:27;100367.97;;;6.97;100.00
31062;BME280;17724;53.546;9.974;2023-12-20T19:17:31;100379.88;;;7.20;100.00
31062;BME280;17724;53.546;9.974;2023-12-20T19:21:31;100369.25;;;7.23;100.00
31062;BME280;17724;53.546;9.974;2023-12-20T19:25:32;100366.69;;;7.33;100.00
31062;BME280;17724;53.546;9.974;2023-12-20T19:29:32;100354.25;;;7.26;100.00
31062;BME280;17724;53.546;9.974;2023-12-20T19:33:37;100342.72;;;7.07;100.00
31062;BME280;17724;53.546;9.974;2023-12-20T19:37:37;100337.41;;;7.17;100.00
31062;BME280;17724;53.546;9.974;2023-12-20T19:41:38;100336.34;;;7.18;100.00
31062;BME280;17724;53.546;9.974;2023-12-20T19:45:38;100331.47;;;7.37;100.00
31062;BME280;17724;53.546;9.974;2023-12-20T19:49:38;100317.78;;;7.37;100.00
31062;BME280;17724;53.546;9.974;2023-12-20T19:53:40;100311.91;;;7.28;100.00
31062;BME280;17724;53.546;9.974;2023-12-20T19:57:41;100297.91;;;7.25;100.00
31062;BME280;17724;53.546;9.974;2023-12-20T20:01:41;100286.06;;;7.19;100.00
31062;BME280;17724;53.546;9.974;2023-12-20T20:05:43;100282.09;;;7.27;100.00
31062;BME280;17724;53.546;9.974;2023-12-20T20:09:43;100258.94;;;7.34;100.00
31062;BME280;17724;53.546;9.974;2023-12-20T20:13:44;100251.59;;;7.57;100.00
31062;BME280;17724;53.546;9.974;2023-12-20T20:17:44;100245.81;;;7.53;100.00
31062;BME280;17724;53.546;9.974;2023-12-20T20:21:45;100234.78;;;7.48;100.00
31062;BME280;17724;53.546;9.974;2023-12-20T20:25:46;100235.28;;;7.45;100.00
31062;BME280;17724;53.546;9.974;2023-12-20T20:29:48;100224.63;;;7.65;100.00
31062;BME280;17724;53.546;9.974;2023-12-20T20:33:48;100206.50;;;7.59;100.00
31062;BME280;17724;53.546;9.974;2023-12-20T20:37:49;100195.78;;;7.58;100.00
31062;BME280;17724;53.546;9.974;2023-12-20T20:41:49;100186.97;;;7.73;100.00
31062;BME280;17724;53.546;9.974;2023-12-20T20:45:51;100174.88;;;7.69;100.00
31062;BME280;17724;53.546;9.974;2023-12-20T20:49:51;100140.06;;;7.42;100.00
31062;BME280;17724;53.546;9.974;2023-12-20T20:53:52;100153.09;;;7.57;100.00
31062;BME280;17724;53.546;9.974;2023-12-20T20:57:52;100133.25;;;7.67;100.00
31062;BME280;17724;53.546;9.974;2023-12-20T21:01:53;100124.47;;;7.64;100.00
31062;BME280;17724;53.546;9.974;2023-12-20T21:05:53;100105.81;;;7.61;100.00
31062;BME280;17724;53.546;9.974;2023-12-20T21:09:53;100099.47;;;7.56;100.00